sensor_id;sensor_type;location;lat;lon;timestamp;pressure;altitude;pressure_sealevel;temperature;humidity
71735;BME280;59577;52.122;5.406;2023-05-09T00:00:04;101844.47;;;14.72;90.16
71735;BME280;59577;52.122;5.406;2023-05-09T00:02:39;101840.25;;;14.75;90.21
71735;BME280;59577;52.122;5.406;2023-05-09T00:05:07;101832.88;;;14.75;90.08
71735;BME280;59577;52.122;5.406;2023-05-09T00:07:42;101837.19;;;14.76;90.00
71735;BME280;59577;52.122;5.406;2023-05-09T00:10:22;101830.22;;;14.79;89.64
71735;BME280;59577;52.122;5.406;2023-05-09T00:13:02;101827.84;;;14.77;89.27
71735;BME280;59577;52.122;5.406;2023-05-09T00:15:33;101821.97;;;14.75;89.84
71735;BME280;59577;52.122;5.406;2023-05-09T00:18:01;101822.75;;;14.76;89.62
71735;BME280;59577;52.122;5.406;2023-05-09T00:20:28;101824.34;;;14.77;89.70
71735;BME280;59577;52.122;5.406;2023-05-09T00:22:56;101827.41;;;14.75;89.72
71735;BME280;59577;52.122;5.406;2023-05-09T00:25:27;101830.50;;;14.74;89.65
71735;BME280;59577;52.122;5.406;2023-05-09T00:27:55;101829.28;;;14.71;89.80
71735;BME280;59577;52.122;5.406;2023-05-09T00:30:25;101820.22;;;14.67;89.99
71735;BME280;59577;52.122;5.406;2023-05-09T00:32:56;101828.25;;;14.60;90.28
71735;BME280;59577;52.122;5.406;2023-05-09T00:35:36;101832.56;;;14.61;89.96
71735;BME280;59577;52.122;5.406;2023-05-09T00:38:05;101816.44;;;14.56;90.27
71735;BME280;59577;52.122;5.406;2023-05-09T00:40:32;101819.53;;;14.54;90.08
71735;BME280;59577;52.122;5.406;2023-05-09T00:42:59;101820.31;;;14.55;90.30
71735;BME280;59577;52.122;5.406;2023-05-09T00:45:33;101824.19;;;14.54;89.97
71735;BME280;59577;52.122;5.406;2023-05-09T00:48:01;101816.38;;;14.52;90.06
71735;BME280;59577;52.122;5.406;2023-05-09T00:50:29;101815.47;;;14.48;90.42
71735;BME280;59577;52.122;5.406;2023-05-09T00:52:57;101808.13;;;14.48;90.31
71735;BME280;59577;52.122;5.406;2023-05-09T00:55:31;101809.34;;;14.51;90.23
71735;BME280;59577;52.122;5.406;2023-05-09T00:57:59;101810.41;;;14.46;90.68
71735;BME280;59577;52.122;5.406;2023-05-09T01:00:29;101808.75;;;14.42;91.38
71735;BME280;59577;52.122;5.406;2023-05-09T01:02:56;101807.56;;;14.43;91.60
71735;BME280;59577;52.122;5.406;2023-05-09T01:05:30;101809.53;;;14.42;91.69
71735;BME280;59577;52.122;5.406;2023-05-09T01:08:08;101802.13;;;14.43;91.66
71735;BME280;59577;52.122;5.406;2023-05-09T01:10:57;101785.44;;;14.44;91.40
71735;BME280;59577;52.122;5.406;2023-05-09T01:13:32;101781.66;;;14.49;91.55
71735;BME280;59577;52.122;5.406;2023-05-09T01:16:31;101777.63;;;14.43;91.33
71735;BME280;59577;52.122;5.406;2023-05-09T01:22:29;101763.75;;;14.32;92.01
71735;BME280;59577;52.122;5.406;2023-05-09T01:30:11;101758.78;;;14.18;93.04
71735;BME280;59577;52.122;5.406;2023-05-09T01:32:41;101759.94;;;14.17;93.18
71735;BME280;59577;52.122;5.406;2023-05-09T01:35:24;101754.50;;;14.17;93.42
71735;BME280;59577;52.122;5.406;2023-05-09T01:37:53;101759.22;;;14.20;92.92
71735;BME280;59577;52.122;5.406;2023-05-09T01:40:21;101752.28;;;14.23;92.47
71735;BME280;59577;52.122;5.406;2023-05-09T01:43:04;101757.72;;;14.23;92.49
71735;BME280;59577;52.122;5.406;2023-05-09T01:45:35;101752.19;;;14.19;92.19
71735;BME280;59577;52.122;5.406;2023-05-09T01:48:06;101752.53;;;14.18;92.39
71735;BME280;59577;52.122;5.406;2023-05-09T01:50:35;101739.63;;;14.15;92.31
71735;BME280;59577;52.122;5.406;2023-05-09T01:53:16;101750.97;;;14.17;92.45
71735;BME280;59577;52.122;5.406;2023-05-09T01:55:52;101746.75;;;14.19;91.94
71735;BME280;59577;52.122;5.406;2023-05-09T01:58:24;101743.31;;;14.22;91.89
71735;BME280;59577;52.122;5.406;2023-05-09T02:01:06;101739.78;;;14.22;92.13
71735;BME280;59577;52.122;5.406;2023-05-09T02:03:36;101728.13;;;14.21;91.78
71735;BME280;59577;52.122;5.406;2023-05-09T02:06:22;101736.72;;;14.23;91.38
71735;BME280;59577;52.122;5.406;2023-05-09T02:08:51;101734.44;;;14.25;91.43
71735;BME280;59577;52.122;5.406;2023-05-09T02:11:31;101726.59;;;14.24;91.39
71735;BME280;59577;52.122;5.406;2023-05-09T02:13:59;101727.41;;;14.24;91.42
71735;BME280;59577;52.122;5.406;2023-05-09T02:16:29;101726.59;;;14.24;91.90
71735;BME280;59577;52.122;5.406;2023-05-09T02:18:57;101727.69;;;14.19;91.67
71735;BME280;59577;52.122;5.406;2023-05-09T02:21:25;101723.38;;;14.18;91.71
71735;BME280;59577;52.122;5.406;2023-05-09T02:24:06;101719.88;;;14.18;91.98
71735;BME280;59577;52.122;5.406;2023-05-09T02:26:46;101714.34;;;14.14;92.23
71735;BME280;59577;52.122;5.406;2023-05-09T02:29:15;101712.75;;;14.13;92.41
71735;BME280;59577;52.122;5.406;2023-05-09T02:31:45;101709.25;;;14.13;92.38
71735;BME280;59577;52.122;5.406;2023-05-09T02:34:18;101714.28;;;14.10;92.05
71735;BME280;59577;52.122;5.406;2023-05-09T02:36:45;101709.53;;;14.07;92.05
71735;BME280;59577;52.122;5.406;2023-05-09T02:39:14;101718.03;;;14.06;91.89
71735;BME280;59577;52.122;5.406;2023-05-09T02:41:47;101698.13;;;14.02;92.32
71735;BME280;59577;52.122;5.406;2023-05-09T02:44:13;101706.28;;;14.02;92.39
71735;BME280;59577;52.122;5.406;2023-05-09T02:46:41;101713.56;;;13.98;92.67
71735;BME280;59577;52.122;5.406;2023-05-09T02:49:10;101709.22;;;13.93;92.95
71735;BME280;59577;52.122;5.406;2023-05-09T02:51:56;101705.31;;;13.94;92.96
71735;BME280;59577;52.122;5.406;2023-05-09T02:54:23;101697.97;;;13.95;93.15
71735;BME280;59577;52.122;5.406;2023-05-09T02:56:51;101699.09;;;13.94;93.29
71735;BME280;59577;52.122;5.406;2023-05-09T02:59:21;101695.94;;;13.91;93.44
71735;BME280;59577;52.122;5.406;2023-05-09T03:01:49;101693.66;;;13.94;93.07
71735;BME280;59577;52.122;5.406;2023-05-09T03:04:16;101696.03;;;13.95;92.83
71735;BME280;59577;52.122;5.406;2023-05-09T03:06:44;101685.13;;;13.95;92.86
71735;BME280;59577;52.122;5.406;2023-05-09T03:09:15;101691.38;;;13.96;92.91
71735;BME280;59577;52.122;5.406;2023-05-09T03:11:44;101689.00;;;13.94;92.76
71735;BME280;59577;52.122;5.406;2023-05-09T03:14:11;101678.09;;;13.94;91.99
71735;BME280;59577;52.122;5.406;2023-05-09T03:16:38;101676.53;;;13.93;92.01
71735;BME280;59577;52.122;5.406;2023-05-09T03:19:05;101674.53;;;13.90;92.49
71735;BME280;59577;52.122;5.406;2023-05-09T03:21:32;101674.88;;;13.88;92.68
71735;BME280;59577;52.122;5.406;2023-05-09T03:23:59;101670.13;;;13.85;93.57
71735;BME280;59577;52.122;5.406;2023-05-09T03:26:26;101661.47;;;13.80;94.21
71735;BME280;59577;52.122;5.406;2023-05-09T03:29:06;101660.31;;;13.81;94.10
71735;BME280;59577;52.122;5.406;2023-05-09T03:31:33;101660.69;;;13.79;94.14
71735;BME280;59577;52.122;5.406;2023-05-09T03:34:01;101646.53;;;13.73;94.62
71735;BME280;59577;52.122;5.406;2023-05-09T03:36:31;101651.09;;;13.69;95.29
71735;BME280;59577;52.122;5.406;2023-05-09T03:38:58;101648.75;;;13.68;96.08
71735;BME280;59577;52.122;5.406;2023-05-09T03:41:26;101652.16;;;13.65;96.29
71735;BME280;59577;52.122;5.406;2023-05-09T03:43:55;101632.25;;;13.61;96.78
71735;BME280;59577;52.122;5.406;2023-05-09T03:46:22;101636.44;;;13.58;97.21
71735;BME280;59577;52.122;5.406;2023-05-09T03:48:49;101631.75;;;13.55;97.23
71735;BME280;59577;52.122;5.406;2023-05-09T03:51:16;101635.25;;;13.56;97.44
71735;BME280;59577;52.122;5.406;2023-05-09T03:53:45;101618.91;;;13.56;97.48
71735;BME280;59577;52.122;5.406;2023-05-09T03:56:26;101622.75;;;13.54;97.51
71735;BME280;59577;52.122;5.406;2023-05-09T03:58:52;101619.34;;;13.58;97.37
71735;BME280;59577;52.122;5.406;2023-05-09T04:01:20;101618.22;;;13.59;97.04
71735;BME280;59577;52.122;5.406;2023-05-09T04:03:48;101614.34;;;13.60;96.80
71735;BME280;59577;52.122;5.406;2023-05-09T04:06:15;101606.53;;;13.58;96.87
71735;BME280;59577;52.122;5.406;2023-05-09T04:08:43;101602.59;;;13.56;97.27
71735;BME280;59577;52.122;5.406;2023-05-09T04:11:13;101615.50;;;13.59;97.52
71735;BME280;59577;52.122;5.406;2023-05-09T04:13:41;101618.56;;;13.57;97.47
71735;BME280;59577;52.122;5.406;2023-05-09T04:16:08;101611.88;;;13.54;97.54
71735;BME280;59577;52.122;5.406;2023-05-09T04:18:35;101615.41;;;13.55;97.66
71735;BME280;59577;52.122;5.406;2023-05-09T04:21:05;101615.50;;;13.59;97.56
71735;BME280;59577;52.122;5.406;2023-05-09T04:23:32;101615.84;;;13.57;97.73
71735;BME280;59577;52.122;5.406;2023-05-09T04:25:59;101607.97;;;13.52;97.80
71735;BME280;59577;52.122;5.406;2023-05-09T04:28:26;101616.13;;;13.52;98.14
71735;BME280;59577;52.122;5.406;2023-05-09T04:30:52;101615.34;;;13.51;98.52
71735;BME280;59577;52.122;5.406;2023-05-09T04:33:19;101611.81;;;13.51;98.31
71735;BME280;59577;52.122;5.406;2023-05-09T04:35:47;101610.25;;;13.50;98.34
71735;BME280;59577;52.122;5.406;2023-05-09T04:38:14;101611.03;;;13.50;98.71
71735;BME280;59577;52.122;5.406;2023-05-09T04:40:43;101599.00;;;13.51;98.53
71735;BME280;59577;52.122;5.406;2023-05-09T04:43:10;101605.66;;;13.54;98.75
71735;BME280;59577;52.122;5.406;2023-05-09T04:45:36;101602.59;;;13.56;98.67
71735;BME280;59577;52.122;5.406;2023-05-09T04:48:03;101601.34;;;13.53;98.49
71735;BME280;59577;52.122;5.406;2023-05-09T04:50:30;101592.41;;;13.52;98.56
71735;BME280;59577;52.122;5.406;2023-05-09T04:52:57;101588.56;;;13.53;98.61
71735;BME280;59577;52.122;5.406;2023-05-09T04:55:24;101584.69;;;13.54;98.79
71735;BME280;59577;52.122;5.406;2023-05-09T04:57:51;101585.50;;;13.55;98.63
71735;BME280;59577;52.122;5.406;2023-05-09T05:00:21;101580.91;;;13.59;98.73
71735;BME280;59577;52.122;5.406;2023-05-09T05:02:49;101578.63;;;13.61;98.29
71735;BME280;59577;52.122;5.406;2023-05-09T05:05:31;101581.78;;;13.63;98.59
71735;BME280;59577;52.122;5.406;2023-05-09T05:08:20;101575.28;;;13.68;98.36
71735;BME280;59577;52.122;5.406;2023-05-09T05:10:46;101577.31;;;13.71;98.36
71735;BME280;59577;52.122;5.406;2023-05-09T05:13:16;101573.53;;;13.76;98.20
71735;BME280;59577;52.122;5.406;2023-05-09T05:15:43;101564.69;;;13.82;97.95
71735;BME280;59577;52.122;5.406;2023-05-09T05:18:17;101564.00;;;13.85;97.75
71735;BME280;59577;52.122;5.406;2023-05-09T05:20:44;101554.69;;;13.86;97.56
71735;BME280;59577;52.122;5.406;2023-05-09T05:23:19;101550.13;;;13.90;97.54
71735;BME280;59577;52.122;5.406;2023-05-09T05:26:00;101545.91;;;13.93;97.28
71735;BME280;59577;52.122;5.406;2023-05-09T05:28:47;101543.25;;;13.97;96.98
71735;BME280;59577;52.122;5.406;2023-05-09T05:31:14;101534.81;;;14.02;97.14
71735;BME280;59577;52.122;5.406;2023-05-09T05:33:55;101542.34;;;14.08;96.68
71735;BME280;59577;52.122;5.406;2023-05-09T05:36:35;101541.66;;;14.15;96.55
71735;BME280;59577;52.122;5.406;2023-05-09T05:39:16;101539.81;;;14.19;96.39
71735;BME280;59577;52.122;5.406;2023-05-09T05:41:42;101540.03;;;14.30;96.43
71735;BME280;59577;52.122;5.406;2023-05-09T05:44:23;101541.81;;;14.42;96.31
71735;BME280;59577;52.122;5.406;2023-05-09T05:46:51;101532.19;;;14.48;95.94
71735;BME280;59577;52.122;5.406;2023-05-09T05:49:32;101526.78;;;14.52;95.05
71735;BME280;59577;52.122;5.406;2023-05-09T05:52:17;101525.72;;;14.56;94.22
71735;BME280;59577;52.122;5.406;2023-05-09T05:54:44;101528.22;;;14.65;94.06
71735;BME280;59577;52.122;5.406;2023-05-09T05:57:26;101519.03;;;14.73;93.72
71735;BME280;59577;52.122;5.406;2023-05-09T06:00:09;101518.75;;;14.78;93.53
71735;BME280;59577;52.122;5.406;2023-05-09T06:02:54;101514.88;;;14.79;92.91
71735;BME280;59577;52.122;5.406;2023-05-09T06:05:25;101517.66;;;14.83;92.58
71735;BME280;59577;52.122;5.406;2023-05-09T06:07:52;101517.72;;;14.87;92.41
71735;BME280;59577;52.122;5.406;2023-05-09T06:10:18;101514.31;;;14.93;92.25
71735;BME280;59577;52.122;5.406;2023-05-09T06:12:44;101512.44;;;14.97;92.18
71735;BME280;59577;52.122;5.406;2023-05-09T06:15:11;101504.31;;;15.01;91.63
71735;BME280;59577;52.122;5.406;2023-05-09T06:17:38;101513.63;;;15.00;91.41
71735;BME280;59577;52.122;5.406;2023-05-09T06:20:05;101504.31;;;15.01;91.29
71735;BME280;59577;52.122;5.406;2023-05-09T06:22:33;101496.19;;;15.04;91.01
71735;BME280;59577;52.122;5.406;2023-05-09T06:24:59;101500.13;;;15.07;90.98
71735;BME280;59577;52.122;5.406;2023-05-09T06:27:26;101495.91;;;15.13;90.84
71735;BME280;59577;52.122;5.406;2023-05-09T06:29:52;101495.16;;;15.13;90.28
71735;BME280;59577;52.122;5.406;2023-05-09T06:32:18;101484.53;;;15.08;90.22
71735;BME280;59577;52.122;5.406;2023-05-09T06:34:45;101484.84;;;15.02;90.23
71735;BME280;59577;52.122;5.406;2023-05-09T06:37:12;101478.19;;;15.00;89.93
71735;BME280;59577;52.122;5.406;2023-05-09T06:39:38;101471.47;;;14.94;89.98
71735;BME280;59577;52.122;5.406;2023-05-09T06:42:05;101469.16;;;14.96;90.35
71735;BME280;59577;52.122;5.406;2023-05-09T06:44:31;101472.72;;;15.00;90.38
71735;BME280;59577;52.122;5.406;2023-05-09T06:46:58;101467.63;;;14.98;90.15
71735;BME280;59577;52.122;5.406;2023-05-09T06:49:24;101459.03;;;14.96;89.93
71735;BME280;59577;52.122;5.406;2023-05-09T06:51:51;101462.13;;;14.95;89.99
71735;BME280;59577;52.122;5.406;2023-05-09T06:54:18;101462.13;;;14.95;89.66
71735;BME280;59577;52.122;5.406;2023-05-09T06:56:44;101455.19;;;14.97;90.38
71735;BME280;59577;52.122;5.406;2023-05-09T06:59:11;101459.91;;;15.00;90.50
71735;BME280;59577;52.122;5.406;2023-05-09T07:01:39;101457.53;;;14.99;90.46
71735;BME280;59577;52.122;5.406;2023-05-09T07:04:06;101456.81;;;15.02;90.51
71735;BME280;59577;52.122;5.406;2023-05-09T07:06:33;101455.59;;;14.99;90.78
71735;BME280;59577;52.122;5.406;2023-05-09T07:08:59;101451.41;;;15.06;91.02
71735;BME280;59577;52.122;5.406;2023-05-09T07:11:26;101447.56;;;15.10;91.15
71735;BME280;59577;52.122;5.406;2023-05-09T07:13:52;101452.28;;;15.13;91.00
71735;BME280;59577;52.122;5.406;2023-05-09T07:16:19;101449.94;;;15.12;90.85
71735;BME280;59577;52.122;5.406;2023-05-09T07:18:48;101445.66;;;15.11;91.08
71735;BME280;59577;52.122;5.406;2023-05-09T07:21:14;101445.34;;;15.16;91.62
71735;BME280;59577;52.122;5.406;2023-05-09T07:23:41;101445.75;;;15.18;91.85
71735;BME280;59577;52.122;5.406;2023-05-09T07:26:07;101438.81;;;15.24;91.95
71735;BME280;59577;52.122;5.406;2023-05-09T07:28:33;101433.41;;;15.28;92.07
71735;BME280;59577;52.122;5.406;2023-05-09T07:31:00;101437.66;;;15.25;91.75
71735;BME280;59577;52.122;5.406;2023-05-09T07:33:26;101438.34;;;15.18;92.18
71735;BME280;59577;52.122;5.406;2023-05-09T07:35:53;101437.50;;;15.14;92.18
71735;BME280;59577;52.122;5.406;2023-05-09T07:38:20;101440.25;;;15.14;92.29
71735;BME280;59577;52.122;5.406;2023-05-09T07:40:46;101438.25;;;15.11;92.72
71735;BME280;59577;52.122;5.406;2023-05-09T07:43:13;101432.44;;;15.13;93.46
71735;BME280;59577;52.122;5.406;2023-05-09T07:45:39;101430.84;;;15.12;93.31
71735;BME280;59577;52.122;5.406;2023-05-09T07:48:06;101431.66;;;15.12;93.55
71735;BME280;59577;52.122;5.406;2023-05-09T07:50:32;101430.88;;;15.15;93.70
71735;BME280;59577;52.122;5.406;2023-05-09T07:52:59;101429.66;;;15.09;93.64
71735;BME280;59577;52.122;5.406;2023-05-09T07:55:25;101430.00;;;15.08;94.20
71735;BME280;59577;52.122;5.406;2023-05-09T07:57:52;101421.44;;;15.06;94.61
71735;BME280;59577;52.122;5.406;2023-05-09T08:00:19;101413.25;;;15.06;94.65
71735;BME280;59577;52.122;5.406;2023-05-09T08:02:50;101415.28;;;15.12;94.96
71735;BME280;59577;52.122;5.406;2023-05-09T08:05:17;101408.66;;;15.13;95.08
71735;BME280;59577;52.122;5.406;2023-05-09T08:07:43;101410.94;;;15.08;94.86
71735;BME280;59577;52.122;5.406;2023-05-09T08:10:10;101413.97;;;15.02;95.05
71735;BME280;59577;52.122;5.406;2023-05-09T08:12:37;101399.97;;;15.04;95.46
71735;BME280;59577;52.122;5.406;2023-05-09T08:15:04;101406.16;;;15.01;95.54
71735;BME280;59577;52.122;5.406;2023-05-09T08:17:31;101394.88;;;15.02;95.81
71735;BME280;59577;52.122;5.406;2023-05-09T08:19:57;101396.06;;;15.05;96.09
71735;BME280;59577;52.122;5.406;2023-05-09T08:22:24;101390.41;;;15.17;96.39
71735;BME280;59577;52.122;5.406;2023-05-09T08:24:51;101393.94;;;15.18;96.28
71735;BME280;59577;52.122;5.406;2023-05-09T08:27:17;101380.00;;;15.27;96.20
71735;BME280;59577;52.122;5.406;2023-05-09T08:29:44;101377.66;;;15.25;96.03
71735;BME280;59577;52.122;5.406;2023-05-09T08:32:10;101375.28;;;15.23;95.72
71735;BME280;59577;52.122;5.406;2023-05-09T08:34:37;101373.34;;;15.24;95.63
71735;BME280;59577;52.122;5.406;2023-05-09T08:37:03;101371.78;;;15.23;95.88
71735;BME280;59577;52.122;5.406;2023-05-09T08:39:30;101376.13;;;15.28;96.15
71735;BME280;59577;52.122;5.406;2023-05-09T08:41:58;101365.25;;;15.31;96.24
71735;BME280;59577;52.122;5.406;2023-05-09T08:44:26;101366.78;;;15.29;96.07
71735;BME280;59577;52.122;5.406;2023-05-09T08:46:55;101360.16;;;15.26;95.77
71735;BME280;59577;52.122;5.406;2023-05-09T08:49:24;101360.47;;;15.21;95.35
71735;BME280;59577;52.122;5.406;2023-05-09T08:51:51;101355.66;;;15.11;95.57
71735;BME280;59577;52.122;5.406;2023-05-09T08:54:18;101353.63;;;15.04;95.91
71735;BME280;59577;52.122;5.406;2023-05-09T08:56:48;101358.72;;;15.06;96.15
71735;BME280;59577;52.122;5.406;2023-05-09T08:59:16;101354.31;;;14.97;95.48
71735;BME280;59577;52.122;5.406;2023-05-09T09:01:44;101343.78;;;14.96;95.78
71735;BME280;59577;52.122;5.406;2023-05-09T09:04:11;101347.28;;;14.96;96.20
71735;BME280;59577;52.122;5.406;2023-05-09T09:06:38;101351.22;;;14.99;96.10
71735;BME280;59577;52.122;5.406;2023-05-09T09:09:06;101347.31;;;15.00;96.44
71735;BME280;59577;52.122;5.406;2023-05-09T09:11:35;101342.34;;;15.06;96.62
71735;BME280;59577;52.122;5.406;2023-05-09T09:14:25;101339.34;;;15.14;96.95
71735;BME280;59577;52.122;5.406;2023-05-09T09:16:54;101341.22;;;15.10;96.92
71735;BME280;59577;52.122;5.406;2023-05-09T09:19:26;101342.41;;;15.09;96.91
71735;BME280;59577;52.122;5.406;2023-05-09T09:21:58;101337.31;;;15.08;97.21
71735;BME280;59577;52.122;5.406;2023-05-09T09:24:24;101342.25;;;14.98;97.10
71735;BME280;59577;52.122;5.406;2023-05-09T09:26:51;101336.34;;;14.93;97.89
71735;BME280;59577;52.122;5.406;2023-05-09T09:29:19;101329.66;;;14.87;97.41
71735;BME280;59577;52.122;5.406;2023-05-09T09:31:47;101332.72;;;14.85;97.48
71735;BME280;59577;52.122;5.406;2023-05-09T09:34:21;101327.69;;;14.87;97.97
71735;BME280;59577;52.122;5.406;2023-05-09T09:36:48;101326.16;;;14.90;98.15
71735;BME280;59577;52.122;5.406;2023-05-09T09:39:15;101325.84;;;14.95;97.78
71735;BME280;59577;52.122;5.406;2023-05-09T09:41:41;101319.69;;;15.01;98.48
71735;BME280;59577;52.122;5.406;2023-05-09T09:44:15;101315.09;;;15.06;98.64
71735;BME280;59577;52.122;5.406;2023-05-09T09:46:48;101321.78;;;15.12;98.58
71735;BME280;59577;52.122;5.406;2023-05-09T09:49:20;101318.69;;;15.13;98.40
71735;BME280;59577;52.122;5.406;2023-05-09T09:51:54;101319.34;;;15.03;97.94
71735;BME280;59577;52.122;5.406;2023-05-09T09:54:21;101302.97;;;15.03;98.28
71735;BME280;59577;52.122;5.406;2023-05-09T09:56:49;101310.38;;;15.02;98.17
71735;BME280;59577;52.122;5.406;2023-05-09T09:59:20;101311.81;;;14.93;98.20
71735;BME280;59577;52.122;5.406;2023-05-09T10:04:25;101314.44;;;14.85;99.38
71735;BME280;59577;52.122;5.406;2023-05-09T10:09:24;101313.13;;;14.76;100.00
71735;BME280;59577;52.122;5.406;2023-05-09T10:11:52;101307.31;;;14.77;100.00
71735;BME280;59577;52.122;5.406;2023-05-09T10:14:21;101301.53;;;14.82;100.00
71735;BME280;59577;52.122;5.406;2023-05-09T10:16:50;101302.72;;;14.81;100.00
71735;BME280;59577;52.122;5.406;2023-05-09T10:19:19;101300.41;;;14.83;100.00
71735;BME280;59577;52.122;5.406;2023-05-09T10:21:51;101302.03;;;14.88;100.00
71735;BME280;59577;52.122;5.406;2023-05-09T10:24:25;101301.63;;;14.90;100.00
71735;BME280;59577;52.122;5.406;2023-05-09T10:27:05;101295.84;;;14.95;100.00
71735;BME280;59577;52.122;5.406;2023-05-09T10:29:34;101295.75;;;14.88;100.00
71735;BME280;59577;52.122;5.406;2023-05-09T10:34:52;101287.09;;;14.78;100.00
71735;BME280;59577;52.122;5.406;2023-05-09T10:37:20;101287.41;;;14.73;100.00
71735;BME280;59577;52.122;5.406;2023-05-09T10:39:47;101282.97;;;14.61;100.00
71735;BME280;59577;52.122;5.406;2023-05-09T10:42:18;101280.53;;;14.56;100.00
71735;BME280;59577;52.122;5.406;2023-05-09T10:44:45;101274.31;;;14.56;100.00
71735;BME280;59577;52.122;5.406;2023-05-09T10:47:13;101271.56;;;14.56;100.00
71735;BME280;59577;52.122;5.406;2023-05-09T10:49:42;101259.19;;;14.58;100.00
71735;BME280;59577;52.122;5.406;2023-05-09T10:52:09;101265.44;;;14.59;100.00
71735;BME280;59577;52.122;5.406;2023-05-09T10:54:36;101263.63;;;14.70;100.00
71735;BME280;59577;52.122;5.406;2023-05-09T10:57:04;101258.56;;;14.72;100.00
71735;BME280;59577;52.122;5.406;2023-05-09T10:59:39;101252.25;;;14.64;100.00
71735;BME280;59577;52.122;5.406;2023-05-09T11:02:13;101257.66;;;14.61;100.00
71735;BME280;59577;52.122;5.406;2023-05-09T11:04:41;101247.59;;;14.65;100.00
71735;BME280;59577;52.122;5.406;2023-05-09T11:07:26;101249.19;;;14.66;100.00
71735;BME280;59577;52.122;5.406;2023-05-09T11:10:13;101244.81;;;14.61;100.00
71735;BME280;59577;52.122;5.406;2023-05-09T11:12:54;101242.88;;;14.62;100.00
71735;BME280;59577;52.122;5.406;2023-05-09T11:15:23;101238.69;;;14.68;100.00
71735;BME280;59577;52.122;5.406;2023-05-09T11:18:04;101233.72;;;14.77;100.00
71735;BME280;59577;52.122;5.406;2023-05-09T11:20:34;101232.66;;;14.85;100.00
71735;BME280;59577;52.122;5.406;2023-05-09T11:23:05;101228.44;;;14.88;100.00
71735;BME280;59577;52.122;5.406;2023-05-09T11:25:32;101225.63;;;14.84;100.00
71735;BME280;59577;52.122;5.406;2023-05-09T11:28:01;101218.69;;;14.87;100.00
71735;BME280;59577;52.122;5.406;2023-05-09T11:30:38;101224.03;;;14.80;100.00
71735;BME280;59577;52.122;5.406;2023-05-09T11:33:05;101215.03;;;14.76;100.00
71735;BME280;59577;52.122;5.406;2023-05-09T11:35:46;101216.28;;;14.82;100.00
71735;BME280;59577;52.122;5.406;2023-05-09T11:38:19;101212.75;;;14.78;100.00
71735;BME280;59577;52.122;5.406;2023-05-09T11:40:46;101209.13;;;14.70;100.00
71735;BME280;59577;52.122;5.406;2023-05-09T11:43:13;101209.03;;;14.63;100.00
71735;BME280;59577;52.122;5.406;2023-05-09T11:45:40;101210.19;;;14.62;100.00
71735;BME280;59577;52.122;5.406;2023-05-09T11:48:10;101203.97;;;14.61;100.00
71735;BME280;59577;52.122;5.406;2023-05-09T11:50:36;101203.59;;;14.63;100.00
71735;BME280;59577;52.122;5.406;2023-05-09T11:53:03;101197.78;;;14.64;100.00
71735;BME280;59577;52.122;5.406;2023-05-09T11:55:30;101193.88;;;14.65;100.00
71735;BME280;59577;52.122;5.406;2023-05-09T11:57:58;101191.13;;;14.62;100.00
71735;BME280;59577;52.122;5.406;2023-05-09T12:00:25;101198.03;;;14.56;100.00
71735;BME280;59577;52.122;5.406;2023-05-09T12:02:52;101203.38;;;14.48;100.00
71735;BME280;59577;52.122;5.406;2023-05-09T12:05:20;101190.03;;;14.40;100.00
71735;BME280;59577;52.122;5.406;2023-05-09T12:07:48;101189.94;;;14.33;100.00
71735;BME280;59577;52.122;5.406;2023-05-09T12:10:19;101187.59;;;14.31;100.00
71735;BME280;59577;52.122;5.406;2023-05-09T12:12:50;101193.00;;;14.27;100.00
71735;BME280;59577;52.122;5.406;2023-05-09T12:15:17;101184.69;;;14.20;100.00
71735;BME280;59577;52.122;5.406;2023-05-09T12:17:45;101181.97;;;14.20;100.00
71735;BME280;59577;52.122;5.406;2023-05-09T12:20:14;101178.53;;;14.23;100.00
71735;BME280;59577;52.122;5.406;2023-05-09T12:22:42;101182.03;;;14.24;100.00
71735;BME280;59577;52.122;5.406;2023-05-09T12:25:10;101180.06;;;14.21;100.00
71735;BME280;59577;52.122;5.406;2023-05-09T12:27:38;101174.34;;;14.29;100.00
71735;BME280;59577;52.122;5.406;2023-05-09T12:30:07;101171.72;;;14.37;100.00
71735;BME280;59577;52.122;5.406;2023-05-09T12:32:36;101169.44;;;14.42;100.00
71735;BME280;59577;52.122;5.406;2023-05-09T12:35:08;101169.03;;;14.40;100.00
71735;BME280;59577;52.122;5.406;2023-05-09T12:37:36;101169.00;;;14.37;100.00
71735;BME280;59577;52.122;5.406;2023-05-09T12:40:05;101164.69;;;14.36;100.00
71735;BME280;59577;52.122;5.406;2023-05-09T12:42:34;101165.81;;;14.31;100.00
71735;BME280;59577;52.122;5.406;2023-05-09T12:45:02;101150.66;;;14.34;100.00
71735;BME280;59577;52.122;5.406;2023-05-09T12:47:30;101148.34;;;14.36;100.00
71735;BME280;59577;52.122;5.406;2023-05-09T12:50:01;101150.69;;;14.37;100.00
71735;BME280;59577;52.122;5.406;2023-05-09T12:52:42;101147.69;;;14.46;100.00
71735;BME280;59577;52.122;5.406;2023-05-09T12:55:28;101143.94;;;14.58;100.00
71735;BME280;59577;52.122;5.406;2023-05-09T12:58:00;101138.69;;;14.72;100.00
71735;BME280;59577;52.122;5.406;2023-05-09T13:00:28;101132.56;;;14.82;100.00
71735;BME280;59577;52.122;5.406;2023-05-09T13:03:28;101140.38;;;14.84;100.00
71735;BME280;59577;52.122;5.406;2023-05-09T13:06:00;101138.38;;;14.81;100.00
71735;BME280;59577;52.122;5.406;2023-05-09T13:08:28;101130.97;;;14.78;100.00
71735;BME280;59577;52.122;5.406;2023-05-09T13:10:55;101125.94;;;14.80;100.00
71735;BME280;59577;52.122;5.406;2023-05-09T13:13:33;101115.03;;;14.80;100.00
71735;BME280;59577;52.122;5.406;2023-05-09T13:16:02;101123.97;;;14.77;100.00
71735;BME280;59577;52.122;5.406;2023-05-09T13:18:29;101122.34;;;14.72;100.00